Time;durP1;ratioP1;P1;durP2;ratioP2;P2;SDS_P1;SDS_P2;PMS_P1;PMS_P2;Temp;Humidity;BMP_temperature;BMP_pressure;BME280_temperature;BME280_humidity;BME280_pressure;Samples;Min_cycle;Max_cycle;Signal;HPM_P1;HPM_P2
2024/01/23 00:01:11;;;;;;;;;;;6.90;99.90;;;;;;5011940;28;20403;-86
2024/01/23 00:03:36;;;;;;;;;;;7.40;99.90;;;;;;4997179;28;19921;-86
2024/01/23 00:06:02;;;;;;;;;;;6.80;99.90;;;;;;5009709;28;19971;-86
2024/01/23 00:08:28;;;;;;;;;;;6.80;99.90;;;;;;4999609;28;20089;-86
2024/01/23 00:10:53;;;;;;;;;;;6.90;99.90;;;;;;5007990;28;19926;-86
2024/01/23 00:13:19;;;;;;;;;;;6.70;99.90;;;;;;4978299;28;19959;-86
2024/01/23 00:15:45;;;;;;;;;;;6.80;99.90;;;;;;5014105;28;20022;-86
2024/01/23 00:18:10;;;;;;;;;;;7.00;99.90;;;;;;4997780;28;20290;-86
2024/01/23 00:20:36;;;;;;;;;;;7.20;99.90;;;;;;5013968;28;19929;-86
2024/01/23 00:23:01;;;;;;;;;;;6.60;99.90;;;;;;5006318;28;20346;-86
2024/01/23 00:25:27;;;;;;;;;;;6.60;99.90;;;;;;5013767;28;19921;-86
2024/01/23 00:27:53;;;;;;;;;;;6.70;99.90;;;;;;4987640;28;19929;-86
2024/01/23 00:30:18;;;;;;;;;;;7.20;99.90;;;;;;4992368;28;19968;-86
2024/01/23 00:32:44;;;;;;;;;;;6.70;99.90;;;;;;4977928;28;19925;-87
2024/01/23 00:35:09;;;;;;;;;;;7.00;99.90;;;;;;4962758;28;19976;-87
2024/01/23 00:37:35;;;;;;;;;;;6.60;99.90;;;;;;5006980;28;19922;-86
2024/01/23 00:40:03;;;;;;;;;;;7.20;99.90;;;;;;4977453;28;19921;-86
2024/01/23 00:42:28;;;;;;;;;;;6.70;99.90;;;;;;4985900;28;20441;-86
2024/01/23 00:44:54;;;;;;;;;;;6.70;99.90;;;;;;4989124;28;19972;-86
2024/01/23 00:47:19;;;;;;;;;;;6.70;99.90;;;;;;5007992;28;20410;-86
2024/01/23 00:49:45;;;;;;;;;;;6.70;99.90;;;;;;4995107;28;19925;-85
2024/01/23 00:52:11;;;;;;;;;;;6.70;99.90;;;;;;4980341;28;19933;-86
2024/01/23 00:54:36;;;;;;;;;;;5.30;99.90;;;;;;4994650;28;19922;-86
2024/01/23 00:57:05;;;;;;;;;;;6.90;99.90;;;;;;4971391;28;19968;-86
2024/01/23 00:59:31;;;;;;;;;;;6.60;99.90;;;;;;5002989;28;19996;-86
2024/01/23 01:01:56;;;;;;;;;;;6.60;99.90;;;;;;4993527;28;19973;-86
2024/01/23 01:04:22;;;;;;;;;;;6.60;99.90;;;;;;5018295;28;19931;-86
2024/01/23 01:06:48;;;;;;;;;;;6.60;99.90;;;;;;5002673;28;19921;-86
2024/01/23 01:09:13;;;;;;;;;;;6.60;99.90;;;;;;5018816;28;19945;-86
2024/01/23 01:11:39;;;;;;;;;;;5.10;99.90;;;;;;5019244;28;20028;-86
2024/01/23 01:14:05;;;;;;;;;;;6.60;99.90;;;;;;5003000;28;19943;-85
2024/01/23 01:16:30;;;;;;;;;;;6.60;99.90;;;;;;5003271;28;19921;-85
2024/01/23 01:18:57;;;;;;;;;;;6.60;99.90;;;;;;5007149;28;19922;-86
2024/01/23 01:21:22;;;;;;;;;;;7.10;99.90;;;;;;4993464;28;19996;-86
2024/01/23 01:23:48;;;;;;;;;;;6.60;99.90;;;;;;5001133;28;20381;-87
2024/01/23 01:26:13;;;;;;;;;;;7.30;99.90;;;;;;5000350;28;19922;-86
2024/01/23 01:28:39;;;;;;;;;;;7.30;99.90;;;;;;4983182;28;20402;-86
2024/01/23 01:31:05;;;;;;;;;;;6.60;99.90;;;;;;4988060;28;19967;-86
2024/01/23 01:33:30;;;;;;;;;;;6.50;99.90;;;;;;5019484;28;19922;-86
2024/01/23 01:35:56;;;;;;;;;;;7.00;99.90;;;;;;4990833;28;19921;-86
2024/01/23 01:38:21;;;;;;;;;;;6.50;99.90;;;;;;4997126;28;20008;-86
2024/01/23 01:40:47;;;;;;;;;;;6.50;99.90;;;;;;5003082;28;19929;-86
2024/01/23 01:43:26;;;;;;;;;;;6.50;99.90;;;;;;5012436;28;19922;-85
2024/01/23 01:46:00;;;;;;;;;;;6.50;99.90;;;;;;4971010;28;19926;-85
2024/01/23 01:48:26;;;;;;;;;;;6.40;99.90;;;;;;5004591;28;19922;-86
2024/01/23 01:50:51;;;;;;;;;;;7.20;99.90;;;;;;4976943;28;20395;-86
2024/01/23 01:53:17;;;;;;;;;;;6.50;99.90;;;;;;4995079;28;19922;-85
2024/01/23 01:55:43;;;;;;;;;;;7.30;99.90;;;;;;4983928;28;19922;-86
2024/01/23 01:58:09;;;;;;;;;;;6.60;99.90;;;;;;4990477;28;19921;-86
2024/01/23 02:00:35;;;;;;;;;;;7.00;99.90;;;;;;5013320;28;19928;-86
2024/01/23 02:03:00;;;;;;;;;;;6.40;99.90;;;;;;5013367;28;20004;-86
2024/01/23 02:05:26;;;;;;;;;;;6.40;99.90;;;;;;4998832;28;19922;-86
2024/01/23 02:07:51;;;;;;;;;;;6.40;99.90;;;;;;5015497;28;19928;-86
2024/01/23 02:10:17;;;;;;;;;;;6.60;99.90;;;;;;5028255;28;19921;-86
2024/01/23 02:12:42;;;;;;;;;;;7.00;99.90;;;;;;4994139;28;19966;-85
2024/01/23 02:15:08;;;;;;;;;;;6.40;99.90;;;;;;5023325;28;20473;-86
2024/01/23 02:17:34;;;;;;;;;;;6.30;99.90;;;;;;5000278;28;19976;-86
2024/01/23 02:19:59;;;;;;;;;;;6.30;99.90;;;;;;5010937;28;19968;-86
2024/01/23 02:22:25;;;;;;;;;;;6.30;99.90;;;;;;4999055;28;19928;-85
2024/01/23 02:24:51;;;;;;;;;;;6.30;99.90;;;;;;5014944;28;19922;-86
2024/01/23 02:27:17;;;;;;;;;;;6.60;99.90;;;;;;4989883;28;19997;-85
2024/01/23 02:29:42;;;;;;;;;;;6.30;99.90;;;;;;4998668;28;19976;-87
2024/01/23 02:32:08;;;;;;;;;;;7.00;99.90;;;;;;4996765;28;19985;-86
2024/01/23 02:34:33;;;;;;;;;;;6.70;99.90;;;;;;5024485;28;19921;-85
2024/01/23 02:37:00;;;;;;;;;;;6.20;99.90;;;;;;5016775;28;19922;-86
2024/01/23 02:39:27;;;;;;;;;;;6.50;99.90;;;;;;5004013;28;20403;-85
2024/01/23 02:41:53;;;;;;;;;;;6.20;99.90;;;;;;4982272;28;19921;-86
2024/01/23 02:44:18;;;;;;;;;;;6.10;99.90;;;;;;4983168;28;19928;-86
2024/01/23 02:46:44;;;;;;;;;;;6.30;99.90;;;;;;5002864;28;19921;-87
2024/01/23 02:49:10;;;;;;;;;;;6.10;99.90;;;;;;5001913;28;20404;-86
2024/01/23 02:51:35;;;;;;;;;;;6.10;99.90;;;;;;4982698;28;19925;-86
2024/01/23 02:54:01;;;;;;;;;;;6.10;99.90;;;;;;4991151;28;19997;-86
2024/01/23 02:56:27;;;;;;;;;;;6.20;99.90;;;;;;4997557;28;19968;-86
2024/01/23 02:58:52;;;;;;;;;;;6.10;99.90;;;;;;4998954;28;19921;-87
2024/01/23 03:01:18;;;;;;;;;;;6.60;99.90;;;;;;4982355;28;19933;-86
2024/01/23 03:03:44;;;;;;;;;;;6.40;99.90;;;;;;5015019;28;19972;-85
2024/01/23 03:06:09;;;;;;;;;;;6.10;99.90;;;;;;4993283;28;19921;-86
2024/01/23 03:08:35;;;;;;;;;;;6.20;99.90;;;;;;4996394;28;19975;-86
2024/01/23 03:11:00;;;;;;;;;;;6.20;99.90;;;;;;5014089;28;19966;-87
2024/01/23 03:13:26;;;;;;;;;;;6.20;99.90;;;;;;5010105;28;19993;-85
2024/01/23 03:15:53;;;;;;;;;;;6.90;99.90;;;;;;5001556;28;19948;-86
2024/01/23 03:18:18;;;;;;;;;;;6.40;99.90;;;;;;4986588;28;19921;-85
2024/01/23 03:20:44;;;;;;;;;;;6.20;99.90;;;;;;5000307;28;19921;-86
2024/01/23 03:23:10;;;;;;;;;;;7.20;99.90;;;;;;5007881;28;20344;-86
2024/01/23 03:25:36;;;;;;;;;;;6.30;99.90;;;;;;5004267;28;19988;-86
2024/01/23 03:28:02;;;;;;;;;;;6.60;99.90;;;;;;4996025;28;19981;-86
2024/01/23 03:30:31;;;;;;;;;;;6.40;99.90;;;;;;5014324;28;20040;-85
2024/01/23 03:32:57;;;;;;;;;;;6.40;99.90;;;;;;5016467;28;19926;-85
2024/01/23 03:35:24;;;;;;;;;;;6.50;99.90;;;;;;4986654;28;19980;-85
2024/01/23 03:37:49;;;;;;;;;;;7.20;99.90;;;;;;5006371;28;20003;-86
2024/01/23 03:40:15;;;;;;;;;;;7.10;99.90;;;;;;4995126;28;20008;-87
2024/01/23 03:42:41;;;;;;;;;;;6.50;99.90;;;;;;5012417;28;19921;-86
2024/01/23 03:45:06;;;;;;;;;;;6.60;99.90;;;;;;5001091;28;19921;-86
2024/01/23 03:47:32;;;;;;;;;;;6.50;99.90;;;;;;4993774;28;19926;-87
2024/01/23 03:49:58;;;;;;;;;;;6.70;99.90;;;;;;4997061;28;19968;-87
2024/01/23 03:52:23;;;;;;;;;;;6.50;99.90;;;;;;5007285;28;19925;-86
2024/01/23 03:54:49;;;;;;;;;;;6.50;99.90;;;;;;5004513;28;19922;-86
2024/01/23 03:57:15;;;;;;;;;;;6.50;99.90;;;;;;4991238;28;20392;-86
2024/01/23 03:59:44;;;;;;;;;;;6.50;99.90;;;;;;4994828;28;20371;-86
2024/01/23 04:02:09;;;;;;;;;;;6.60;99.90;;;;;;5011892;28;19925;-87
2024/01/23 04:04:36;;;;;;;;;;;6.80;99.90;;;;;;5014081;28;20318;-86
2024/01/23 04:07:02;;;;;;;;;;;7.10;99.90;;;;;;5009957;28;20087;-86
2024/01/23 04:09:28;;;;;;;;;;;6.60;99.90;;;;;;5006782;28;19921;-86
2024/01/23 04:11:54;;;;;;;;;;;6.60;99.90;;;;;;5007561;28;19968;-86
2024/01/23 04:14:20;;;;;;;;;;;6.70;99.90;;;;;;5013553;28;19964;-86
2024/01/23 04:16:46;;;;;;;;;;;6.60;99.90;;;;;;5011500;28;20285;-86
2024/01/23 04:19:12;;;;;;;;;;;6.50;99.90;;;;;;5010161;28;19930;-86
2024/01/23 04:21:38;;;;;;;;;;;6.70;99.90;;;;;;5000495;28;20342;-86
2024/01/23 04:24:03;;;;;;;;;;;6.60;99.90;;;;;;4977785;28;20002;-86
2024/01/23 04:26:29;;;;;;;;;;;6.60;99.90;;;;;;5001677;28;19923;-86
2024/01/23 04:28:55;;;;;;;;;;;7.60;99.90;;;;;;4961551;28;19922;-86
2024/01/23 04:31:20;;;;;;;;;;;6.80;99.90;;;;;;5003997;28;19950;-86
2024/01/23 04:33:46;;;;;;;;;;;6.60;99.90;;;;;;4982255;28;19921;-86
2024/01/23 04:36:12;;;;;;;;;;;6.70;99.90;;;;;;5012790;28;19925;-86
2024/01/23 04:38:38;;;;;;;;;;;6.70;99.90;;;;;;5011983;28;20047;-86
2024/01/23 04:41:04;;;;;;;;;;;6.90;99.90;;;;;;5007352;28;19921;-86
2024/01/23 04:43:30;;;;;;;;;;;6.70;99.90;;;;;;5008986;28;19921;-86
2024/01/23 04:45:55;;;;;;;;;;;6.60;99.90;;;;;;5012987;28;19925;-86
2024/01/23 04:48:21;;;;;;;;;;;6.70;99.90;;;;;;4983958;28;20359;-86
2024/01/23 04:50:46;;;;;;;;;;;7.20;99.90;;;;;;5010698;28;19921;-85
2024/01/23 04:53:12;;;;;;;;;;;7.10;99.90;;;;;;4993149;28;19929;-86
2024/01/23 04:55:38;;;;;;;;;;;6.90;99.90;;;;;;4977007;28;19944;-86
2024/01/23 04:58:04;;;;;;;;;;;7.00;99.90;;;;;;4961543;28;19922;-86
2024/01/23 05:00:30;;;;;;;;;;;7.00;99.90;;;;;;4991999;28;20444;-86
2024/01/23 05:02:55;;;;;;;;;;;6.60;99.90;;;;;;4994522;28;19962;-86
2024/01/23 05:05:21;;;;;;;;;;;7.20;99.90;;;;;;4996754;28;20345;-86
2024/01/23 05:07:47;;;;;;;;;;;7.30;99.90;;;;;;4999084;28;19928;-86
2024/01/23 05:10:12;;;;;;;;;;;6.70;99.90;;;;;;4985756;28;19987;-86
2024/01/23 05:12:38;;;;;;;;;;;6.70;99.90;;;;;;4999306;28;19976;-86
2024/01/23 05:15:04;;;;;;;;;;;6.70;99.90;;;;;;5010872;28;19949;-85
2024/01/23 05:17:30;;;;;;;;;;;6.60;99.90;;;;;;4992567;28;19922;-86
2024/01/23 05:19:56;;;;;;;;;;;6.60;99.90;;;;;;5007292;28;19924;-86
2024/01/23 05:22:22;;;;;;;;;;;6.80;99.90;;;;;;5007926;28;19932;-87
2024/01/23 05:24:47;;;;;;;;;;;7.30;99.90;;;;;;5008222;28;20012;-86
2024/01/23 05:27:13;;;;;;;;;;;7.20;99.90;;;;;;4961844;28;19922;-85
2024/01/23 05:29:38;;;;;;;;;;;6.60;99.90;;;;;;4995929;28;19991;-86
2024/01/23 05:32:04;;;;;;;;;;;7.10;99.90;;;;;;4997154;28;19925;-86
2024/01/23 05:34:30;;;;;;;;;;;6.70;99.90;;;;;;4995822;28;20345;-86
2024/01/23 05:36:55;;;;;;;;;;;6.90;99.90;;;;;;5007959;28;19948;-87
2024/01/23 05:39:21;;;;;;;;;;;6.60;99.90;;;;;;4981056;28;19922;-86
2024/01/23 05:41:46;;;;;;;;;;;6.70;99.90;;;;;;4960952;28;20408;-86
2024/01/23 05:44:12;;;;;;;;;;;6.60;99.90;;;;;;4967004;28;19929;-86
2024/01/23 05:46:38;;;;;;;;;;;6.80;99.90;;;;;;5014452;28;20396;-86
2024/01/23 05:49:03;;;;;;;;;;;6.70;99.90;;;;;;5011463;28;19932;-86
2024/01/23 05:51:29;;;;;;;;;;;6.60;99.90;;;;;;4997814;28;19926;-86
2024/01/23 05:53:55;;;;;;;;;;;6.70;99.90;;;;;;4987125;28;19925;-85
2024/01/23 05:56:20;;;;;;;;;;;6.70;99.90;;;;;;5000264;28;19969;-85
2024/01/23 05:58:46;;;;;;;;;;;6.70;99.90;;;;;;5016463;28;20012;-86
2024/01/23 06:01:11;;;;;;;;;;;6.70;99.90;;;;;;4998368;28;20293;-86
2024/01/23 06:03:39;;;;;;;;;;;6.70;99.90;;;;;;4982610;28;20394;-85
2024/01/23 06:06:06;;;;;;;;;;;6.70;99.90;;;;;;5015094;28;19948;-84
2024/01/23 06:08:31;;;;;;;;;;;6.70;99.90;;;;;;4999775;28;20400;-86
2024/01/23 06:10:57;;;;;;;;;;;6.70;99.90;;;;;;4999891;28;19921;-86
2024/01/23 06:13:22;;;;;;;;;;;6.70;99.90;;;;;;4998094;28;19925;-86
2024/01/23 06:15:48;;;;;;;;;;;7.20;99.90;;;;;;4986831;28;19929;-87
2024/01/23 06:18:13;;;;;;;;;;;7.10;99.90;;;;;;4989218;28;19921;-87
2024/01/23 06:20:39;;;;;;;;;;;6.70;99.90;;;;;;4999723;28;19921;-86
2024/01/23 06:23:05;;;;;;;;;;;6.70;99.90;;;;;;5015932;28;20004;-87
2024/01/23 06:25:30;;;;;;;;;;;6.70;99.90;;;;;;4971249;28;19976;-87
2024/01/23 06:27:56;;;;;;;;;;;6.70;99.90;;;;;;4989231;28;19922;-85
2024/01/23 06:30:21;;;;;;;;;;;6.70;99.90;;;;;;4989127;28;20016;-83
2024/01/23 06:32:47;;;;;;;;;;;6.70;99.90;;;;;;4998600;28;20395;-84
2024/01/23 06:35:13;;;;;;;;;;;6.80;99.90;;;;;;5009123;28;19975;-84
2024/01/23 06:37:38;;;;;;;;;;;6.70;99.90;;;;;;4999302;28;20377;-84
2024/01/23 06:40:04;;;;;;;;;;;6.80;99.90;;;;;;5000722;28;19992;-85
2024/01/23 06:42:30;;;;;;;;;;;6.80;99.90;;;;;;5016609;28;19922;-84
2024/01/23 06:44:55;;;;;;;;;;;7.50;99.90;;;;;;5000092;28;19922;-85
2024/01/23 06:47:21;;;;;;;;;;;6.80;99.90;;;;;;4999670;28;19946;-85
2024/01/23 06:49:47;;;;;;;;;;;7.30;99.90;;;;;;4981509;28;19925;-85
2024/01/23 06:52:13;;;;;;;;;;;6.70;99.90;;;;;;5003615;28;20297;-85
2024/01/23 06:54:38;;;;;;;;;;;6.80;99.90;;;;;;4998273;28;19975;-84
2024/01/23 06:57:04;;;;;;;;;;;6.80;99.90;;;;;;4990116;28;20361;-85
2024/01/23 06:59:30;;;;;;;;;;;6.50;99.90;;;;;;4980847;28;20384;-86
2024/01/23 07:01:55;;;;;;;;;;;6.50;99.90;;;;;;4987429;28;19951;-86
2024/01/23 07:04:21;;;;;;;;;;;6.50;99.90;;;;;;4977718;28;20385;-86
2024/01/23 07:06:47;;;;;;;;;;;6.40;99.90;;;;;;4983076;28;19922;-86
2024/01/23 07:09:12;;;;;;;;;;;6.40;99.90;;;;;;4981981;28;20316;-85
2024/01/23 07:11:42;;;;;;;;;;;6.40;99.90;;;;;;4999237;28;19972;-88
2024/01/23 07:14:08;;;;;;;;;;;6.30;99.90;;;;;;5016823;28;19921;-86
2024/01/23 07:16:34;;;;;;;;;;;7.20;99.90;;;;;;5014177;28;19929;-86
2024/01/23 07:18:59;;;;;;;;;;;6.30;99.90;;;;;;5015753;28;19921;-85
2024/01/23 07:21:25;;;;;;;;;;;6.20;99.90;;;;;;4995385;28;19969;-86
2024/01/23 07:23:51;;;;;;;;;;;6.20;99.90;;;;;;4994961;28;19928;-86
2024/01/23 07:26:16;;;;;;;;;;;6.20;99.90;;;;;;5014281;28;20033;-86
2024/01/23 07:28:42;;;;;;;;;;;6.20;99.90;;;;;;4990665;28;19973;-86
2024/01/23 07:31:08;;;;;;;;;;;6.50;99.90;;;;;;4979615;28;20012;-86
2024/01/23 07:33:34;;;;;;;;;;;6.20;99.90;;;;;;4993997;28;20000;-86
2024/01/23 07:36:00;;;;;;;;;;;6.10;99.90;;;;;;4971784;28;19925;-87
2024/01/23 07:38:26;;;;;;;;;;;6.10;99.90;;;;;;4987535;28;19922;-87
2024/01/23 07:40:51;;;;;;;;;;;6.00;99.90;;;;;;4987405;28;19921;-88
2024/01/23 07:43:17;;;;;;;;;;;6.00;99.90;;;;;;4963231;28;20362;-87
2024/01/23 07:45:43;;;;;;;;;;;6.00;99.90;;;;;;4995597;28;19925;-87
2024/01/23 07:48:08;;;;;;;;;;;6.00;99.90;;;;;;4986634;28;19980;-87
2024/01/23 07:50:34;;;;;;;;;;;6.10;99.90;;;;;;5015210;28;19922;-86
2024/01/23 07:52:59;;;;;;;;;;;6.00;99.90;;;;;;5011772;28;19926;-85
2024/01/23 07:55:25;;;;;;;;;;;6.50;99.90;;;;;;4982347;28;19944;-86
2024/01/23 07:57:50;;;;;;;;;;;6.40;99.90;;;;;;4992963;28;19922;-86
2024/01/23 08:00:18;;;;;;;;;;;6.50;99.90;;;;;;5007845;28;20011;-86
2024/01/23 08:02:44;;;;;;;;;;;5.90;99.90;;;;;;4981481;28;19929;-86
2024/01/23 08:05:13;;;;;;;;;;;5.90;99.90;;;;;;4995946;28;19985;-84
2024/01/23 08:07:41;;;;;;;;;;;5.90;99.90;;;;;;4980115;28;19921;-85
2024/01/23 08:10:07;;;;;;;;;;;5.90;99.90;;;;;;4998144;28;19929;-85
2024/01/23 08:12:34;;;;;;;;;;;5.90;99.90;;;;;;4989662;28;19932;-89
2024/01/23 08:15:00;;;;;;;;;;;5.90;99.90;;;;;;4999199;28;19921;-86
2024/01/23 08:17:26;;;;;;;;;;;5.80;99.90;;;;;;5009334;28;19960;-85
2024/01/23 08:19:51;;;;;;;;;;;7.40;99.90;;;;;;5009764;28;19925;-86
2024/01/23 08:22:17;;;;;;;;;;;5.80;99.90;;;;;;4995576;28;20297;-86
2024/01/23 08:24:43;;;;;;;;;;;7.00;99.90;;;;;;4976204;28;19944;-86
2024/01/23 08:27:08;;;;;;;;;;;6.80;99.90;;;;;;4996249;28;19927;-86
2024/01/23 08:29:34;;;;;;;;;;;6.20;99.90;;;;;;4979731;28;19922;-86
2024/01/23 08:32:00;;;;;;;;;;;6.30;99.90;;;;;;4981448;28;20431;-86
2024/01/23 08:34:26;;;;;;;;;;;6.90;99.90;;;;;;4998568;28;19922;-85
2024/01/23 08:36:51;;;;;;;;;;;5.90;99.90;;;;;;5009603;28;19948;-86
2024/01/23 08:39:17;;;;;;;;;;;7.50;99.90;;;;;;4992204;28;19928;-86
2024/01/23 08:41:43;;;;;;;;;;;5.90;99.90;;;;;;5013747;28;19928;-86
2024/01/23 08:44:09;;;;;;;;;;;5.90;99.90;;;;;;4980595;28;20405;-86
2024/01/23 08:46:34;;;;;;;;;;;6.60;99.90;;;;;;4978118;28;19922;-86
2024/01/23 08:49:00;;;;;;;;;;;6.00;99.90;;;;;;5010907;28;20012;-86
2024/01/23 08:51:28;;;;;;;;;;;6.00;99.90;;;;;;4992875;28;19925;-86
2024/01/23 08:53:54;;;;;;;;;;;6.10;99.90;;;;;;5012402;28;19922;-88
2024/01/23 08:56:21;;;;;;;;;;;6.10;99.90;;;;;;5011995;28;19943;-86
2024/01/23 08:58:47;;;;;;;;;;;7.40;99.90;;;;;;4986062;28;20327;-87
2024/01/23 09:01:12;;;;;;;;;;;6.10;99.90;;;;;;4997487;28;19953;-86
2024/01/23 09:03:39;;;;;;;;;;;6.20;99.90;;;;;;5006259;28;19921;-86
2024/01/23 09:06:05;;;;;;;;;;;7.00;99.90;;;;;;5007212;28;19921;-85
2024/01/23 09:08:30;;;;;;;;;;;6.30;99.90;;;;;;5008501;28;20262;-86
2024/01/23 09:10:57;;;;;;;;;;;6.30;99.90;;;;;;5003744;28;20440;-87
2024/01/23 09:13:22;;;;;;;;;;;6.60;99.90;;;;;;4985990;28;20313;-86
2024/01/23 09:15:48;;;;;;;;;;;6.40;99.90;;;;;;4994529;28;20012;-86
2024/01/23 09:18:14;;;;;;;;;;;6.50;99.90;;;;;;4988960;28;19976;-86
2024/01/23 09:20:39;;;;;;;;;;;6.70;99.90;;;;;;4997887;28;19925;-87
2024/01/23 09:23:05;;;;;;;;;;;6.90;99.90;;;;;;4977126;28;19922;-86
2024/01/23 09:25:31;;;;;;;;;;;7.10;99.90;;;;;;4986054;28;19928;-85
2024/01/23 09:27:56;;;;;;;;;;;7.30;99.90;;;;;;5003118;28;19922;-85
2024/01/23 09:30:22;;;;;;;;;;;7.30;99.90;;;;;;5026961;28;19929;-86
2024/01/23 09:32:48;;;;;;;;;;;6.80;99.90;;;;;;4977658;28;19972;-86
2024/01/23 09:35:14;;;;;;;;;;;7.90;99.90;;;;;;4983351;28;19928;-86
2024/01/23 09:37:39;;;;;;;;;;;8.40;99.90;;;;;;4996596;28;20271;-86
2024/01/23 09:40:08;;;;;;;;;;;7.90;99.90;;;;;;5009441;28;20004;-87
2024/01/23 09:42:36;;;;;;;;;;;8.20;99.90;;;;;;5010094;28;19944;-87
2024/01/23 09:45:07;;;;;;;;;;;8.30;99.90;;;;;;5012777;28;19926;-87
2024/01/23 09:47:33;;;;;;;;;;;8.40;99.90;;;;;;5013463;28;19944;-87
2024/01/23 09:49:59;;;;;;;;;;;8.30;99.90;;;;;;4997546;28;19922;-87
2024/01/23 09:52:25;;;;;;;;;;;8.40;99.90;;;;;;5017597;28;19941;-86
2024/01/23 09:54:51;;;;;;;;;;;8.40;99.90;;;;;;4996110;28;19921;-86
2024/01/23 09:57:16;;;;;;;;;;;8.60;99.90;;;;;;5011324;28;20369;-86
2024/01/23 09:59:42;;;;;;;;;;;8.80;99.90;;;;;;4998096;28;19925;-87
2024/01/23 10:02:08;;;;;;;;;;;7.80;99.90;;;;;;4995431;28;20293;-86
2024/01/23 10:04:35;;;;;;;;;;;9.10;99.90;;;;;;4995790;28;20392;-87
2024/01/23 10:07:07;;;;;;;;;;;9.30;99.90;;;;;;4993864;28;19922;-88
2024/01/23 10:09:33;;;;;;;;;;;9.50;99.90;;;;;;4994893;28;20404;-88
2024/01/23 10:11:58;;;;;;;;;;;9.60;99.90;;;;;;5003914;28;19926;-86
2024/01/23 10:14:24;;;;;;;;;;;9.50;99.90;;;;;;5014420;28;19960;-86
2024/01/23 10:16:50;;;;;;;;;;;9.60;99.90;;;;;;4994006;28;20369;-86
2024/01/23 10:19:16;;;;;;;;;;;9.50;99.90;;;;;;5010095;28;19927;-86
2024/01/23 10:21:42;;;;;;;;;;;9.70;99.90;;;;;;4993742;28;19945;-86
2024/01/23 10:24:07;;;;;;;;;;;9.70;99.90;;;;;;4987859;28;20448;-87
2024/01/23 10:26:33;;;;;;;;;;;9.90;99.90;;;;;;4993466;28;19944;-86
2024/01/23 10:29:00;;;;;;;;;;;10.10;99.90;;;;;;4989863;28;20368;-87
2024/01/23 10:31:25;;;;;;;;;;;10.00;99.90;;;;;;4982359;28;19929;-86
2024/01/23 10:33:52;;;;;;;;;;;10.20;99.90;;;;;;4981240;28;20373;-86
2024/01/23 10:36:17;;;;;;;;;;;10.50;99.90;;;;;;4996134;28;20088;-87
2024/01/23 10:38:43;;;;;;;;;;;10.50;99.90;;;;;;4987128;28;19965;-87
2024/01/23 10:41:11;;;;;;;;;;;10.70;99.90;;;;;;5011576;28;20305;-87
2024/01/23 10:43:38;;;;;;;;;;;10.80;99.90;;;;;;5011879;28;19921;-85
2024/01/23 10:46:03;;;;;;;;;;;10.70;99.90;;;;;;4988181;28;19929;-86
2024/01/23 10:48:30;;;;;;;;;;;10.60;99.90;;;;;;4969181;28;19922;-85
2024/01/23 10:51:00;;;;;;;;;;;10.40;99.90;;;;;;5002416;28;20332;-88
2024/01/23 10:53:32;;;;;;;;;;;10.00;99.90;;;;;;5031069;28;19948;-89
2024/01/23 10:55:57;;;;;;;;;;;9.80;99.90;;;;;;5011353;28;19922;-89
2024/01/23 10:58:32;;;;;;;;;;;9.60;99.90;;;;;;5010971;28;20336;-88
2024/01/23 11:00:59;;;;;;;;;;;9.70;99.90;;;;;;5015514;28;19975;-86
2024/01/23 11:03:25;;;;;;;;;;;10.10;99.90;;;;;;5016385;28;19928;-86
2024/01/23 11:05:54;;;;;;;;;;;10.60;99.90;;;;;;5002966;28;19921;-85
2024/01/23 11:08:24;;;;;;;;;;;10.40;99.90;;;;;;5003368;28;20424;-86
2024/01/23 11:10:55;;;;;;;;;;;10.10;99.90;;;;;;5013192;28;19926;-86
2024/01/23 11:13:21;;;;;;;;;;;9.60;99.90;;;;;;5010368;28;19932;-86
2024/01/23 11:15:47;;;;;;;;;;;9.40;99.90;;;;;;5012771;28;20425;-85
2024/01/23 11:18:25;;;;;;;;;;;9.40;99.90;;;;;;5013719;28;20374;-85
2024/01/23 11:21:03;;;;;;;;;;;9.60;99.90;;;;;;5013813;28;20310;-85
2024/01/23 11:23:29;;;;;;;;;;;9.60;99.90;;;;;;5002988;28;19973;-85
2024/01/23 11:26:00;;;;;;;;;;;9.60;99.90;;;;;;5017644;28;19921;-85
2024/01/23 11:28:26;;;;;;;;;;;9.40;99.90;;;;;;5011307;28;19945;-86
2024/01/23 11:31:12;;;;;;;;;;;9.00;99.90;;;;;;5026307;28;19925;-89
2024/01/23 11:33:38;;;;;;;;;;;8.90;99.90;;;;;;5014611;28;20420;-87
2024/01/23 11:36:07;;;;;;;;;;;8.80;99.90;;;;;;4997762;28;20016;-87
2024/01/23 11:38:45;;;;;;;;;;;8.70;99.90;;;;;;5009028;28;19921;-87
2024/01/23 11:41:15;;;;;;;;;;;8.90;99.90;;;;;;4990953;28;20594;-87
2024/01/23 11:43:41;;;;;;;;;;;9.30;99.90;;;;;;4995713;28;20016;-87
2024/01/23 11:46:11;;;;;;;;;;;9.60;99.90;;;;;;5001960;28;19930;-88
2024/01/23 11:48:37;;;;;;;;;;;9.60;99.90;;;;;;5021965;28;19921;-87
2024/01/23 11:51:03;;;;;;;;;;;9.60;99.90;;;;;;5017361;28;20093;-87
2024/01/23 11:53:30;;;;;;;;;;;9.70;99.90;;;;;;5021100;28;19926;-87
2024/01/23 11:55:55;;;;;;;;;;;9.80;99.90;;;;;;5020953;28;19933;-88
2024/01/23 11:58:21;;;;;;;;;;;10.00;99.90;;;;;;4991890;28;19969;-87
2024/01/23 12:00:46;;;;;;;;;;;10.10;99.90;;;;;;4994329;28;19930;-87
2024/01/23 12:03:20;;;;;;;;;;;10.20;99.90;;;;;;4992741;28;20401;-87
2024/01/23 12:05:45;;;;;;;;;;;10.20;99.90;;;;;;4989539;28;20004;-85
2024/01/23 12:08:11;;;;;;;;;;;10.50;99.90;;;;;;5010819;28;20015;-85
2024/01/23 12:10:37;;;;;;;;;;;9.90;99.90;;;;;;5005667;28;20277;-86
2024/01/23 12:13:03;;;;;;;;;;;9.90;99.90;;;;;;5014340;28;19972;-86
2024/01/23 12:15:28;;;;;;;;;;;9.80;99.90;;;;;;4997261;28;19921;-86
2024/01/23 12:17:54;;;;;;;;;;;9.70;99.90;;;;;;4990976;28;19922;-86
2024/01/23 12:20:21;;;;;;;;;;;9.80;99.90;;;;;;4993725;28;19929;-85
2024/01/23 12:22:47;;;;;;;;;;;9.80;99.90;;;;;;5002071;28;19926;-87
2024/01/23 12:25:13;;;;;;;;;;;9.90;99.90;;;;;;5004747;28;20016;-85
2024/01/23 12:27:39;;;;;;;;;;;10.00;99.90;;;;;;4993942;28;20004;-86
2024/01/23 12:30:09;;;;;;;;;;;9.90;99.90;;;;;;5009455;28;19943;-86
2024/01/23 12:32:34;;;;;;;;;;;9.60;99.90;;;;;;5004163;28;20047;-86
2024/01/23 12:35:00;;;;;;;;;;;9.40;99.90;;;;;;4988830;28;19983;-85
2024/01/23 12:37:29;;;;;;;;;;;9.30;99.90;;;;;;5001875;28;19929;-86
2024/01/23 12:39:58;;;;;;;;;;;9.20;99.90;;;;;;4990020;28;20336;-85
2024/01/23 12:42:24;;;;;;;;;;;9.00;99.90;;;;;;5008516;28;20061;-86
2024/01/23 12:44:49;;;;;;;;;;;8.90;99.90;;;;;;5008759;28;19988;-86
2024/01/23 12:47:15;;;;;;;;;;;8.80;99.90;;;;;;4993227;28;19922;-86
2024/01/23 12:49:40;;;;;;;;;;;8.70;99.90;;;;;;4987680;28;19956;-87
2024/01/23 12:52:16;;;;;;;;;;;8.70;99.90;;;;;;4986228;28;20041;-87
2024/01/23 12:54:42;;;;;;;;;;;8.60;99.90;;;;;;4990164;28;19965;-89
2024/01/23 12:57:08;;;;;;;;;;;9.10;99.90;;;;;;4999000;28;19922;-86
2024/01/23 12:59:33;;;;;;;;;;;8.50;99.90;;;;;;4980049;28;19921;-87
2024/01/23 13:01:59;;;;;;;;;;;8.60;99.90;;;;;;5009556;28;19910;-87
2024/01/23 13:04:24;;;;;;;;;;;8.50;99.90;;;;;;4991614;28;20004;-87
2024/01/23 13:06:50;;;;;;;;;;;8.60;99.90;;;;;;4993465;28;19925;-86
2024/01/23 13:09:16;;;;;;;;;;;8.60;99.90;;;;;;4994441;28;19921;-87
2024/01/23 13:11:42;;;;;;;;;;;8.60;99.90;;;;;;4989361;28;19996;-87
2024/01/23 13:14:07;;;;;;;;;;;8.60;99.90;;;;;;4994166;28;20373;-87
2024/01/23 13:16:33;;;;;;;;;;;8.70;99.90;;;;;;4975724;28;19921;-87
2024/01/23 13:18:59;;;;;;;;;;;8.70;99.90;;;;;;4993841;28;19928;-86
2024/01/23 13:21:25;;;;;;;;;;;8.70;99.90;;;;;;4993315;28;19922;-85
2024/01/23 13:23:50;;;;;;;;;;;8.80;99.90;;;;;;5003350;28;20008;-86
2024/01/23 13:26:16;;;;;;;;;;;8.80;99.90;;;;;;4978149;28;19922;-85
2024/01/23 13:28:41;;;;;;;;;;;8.70;99.90;;;;;;5012672;28;19922;-86
2024/01/23 13:31:12;;;;;;;;;;;8.80;99.90;;;;;;4973157;28;19921;-86
2024/01/23 13:33:38;;;;;;;;;;;8.80;99.90;;;;;;4994093;28;19929;-87
2024/01/23 13:36:04;;;;;;;;;;;8.80;99.90;;;;;;4995110;28;19922;-87
2024/01/23 13:38:29;;;;;;;;;;;8.70;99.90;;;;;;4996514;28;19944;-87
2024/01/23 13:40:55;;;;;;;;;;;8.70;99.90;;;;;;4994677;28;20023;-87
2024/01/23 13:43:21;;;;;;;;;;;8.60;99.90;;;;;;4993452;28;19922;-87
2024/01/23 13:45:46;;;;;;;;;;;8.60;99.90;;;;;;4975936;28;19945;-87
2024/01/23 13:48:12;;;;;;;;;;;8.60;99.90;;;;;;4995248;28;19953;-87
2024/01/23 13:50:37;;;;;;;;;;;8.60;99.90;;;;;;5011604;28;20320;-87
2024/01/23 13:53:03;;;;;;;;;;;8.60;99.90;;;;;;4983999;28;19933;-87
2024/01/23 13:55:29;;;;;;;;;;;8.60;99.90;;;;;;5002001;28;19921;-87
2024/01/23 13:57:54;;;;;;;;;;;8.60;99.90;;;;;;5008113;28;20004;-86
2024/01/23 14:00:20;;;;;;;;;;;8.60;99.90;;;;;;5001558;28;19973;-87
2024/01/23 14:02:48;;;;;;;;;;;8.60;99.90;;;;;;4974191;28;21768;-87
2024/01/23 14:05:14;;;;;;;;;;;8.60;99.90;;;;;;5004880;28;19976;-87
2024/01/23 14:07:43;;;;;;;;;;;8.50;99.90;;;;;;5003776;28;20381;-87
2024/01/23 14:10:15;;;;;;;;;;;8.50;99.90;;;;;;4989757;28;19921;-86
2024/01/23 14:12:45;;;;;;;;;;;8.50;99.90;;;;;;5006075;28;19934;-87
2024/01/23 14:15:11;;;;;;;;;;;8.50;99.90;;;;;;5012167;28;19921;-87
2024/01/23 14:17:37;;;;;;;;;;;8.50;99.90;;;;;;5013835;28;19925;-87
2024/01/23 14:20:04;;;;;;;;;;;8.40;99.90;;;;;;5009993;28;19944;-87
2024/01/23 14:22:30;;;;;;;;;;;8.40;99.90;;;;;;4983985;28;20008;-87